WZZ1386 EPMO-EDDS
Flight info
| Callsign | WZZ1386 |
|---|---|
| Flight time | N/A |
| Altitude | 36000 |
| Route | SOXER N869 TOMTI/N0277F080 N869 OKG DCT DKB DCT LBU |
| Aircraft | A21N/M-SDE2E3FGHIRWXY/LB1 |
Departure
| Time | 2026-05-07 19:17 |
|---|---|
| Airport | Warsaw Modlin Airport (EPMO) |
Arrival
| Time | N/A |
|---|---|
| Airport | Stuttgart Airport (EDDS) |
| Time | Latitude | Longitude | Altitude | Speed | Heading |
|---|---|---|---|---|---|
| 2026-05-07 18:51 | 52.44755 | 20.65339 | 338 ft | 0 kts | 206° |
| 2026-05-07 19:07 | 52.44762 | 20.65346 | 338 ft | 2 kts | 202° |
| 2026-05-07 19:07 | 52.44777 | 20.65346 | 338 ft | 2 kts | 160° |
| 2026-05-07 19:08 | 52.44790 | 20.65332 | 338 ft | 2 kts | 126° |
| 2026-05-07 19:08 | 52.44795 | 20.65310 | 338 ft | 2 kts | 92° |
| 2026-05-07 19:08 | 52.44795 | 20.65298 | 338 ft | 1 kts | 76° |
| 2026-05-07 19:08 | 52.44794 | 20.65291 | 338 ft | 0 kts | 81° |
| 2026-05-07 19:12 | 52.44794 | 20.65295 | 338 ft | 1 kts | 81° |
| 2026-05-07 19:12 | 52.44798 | 20.65332 | 337 ft | 5 kts | 81° |
| 2026-05-07 19:12 | 52.44806 | 20.65416 | 337 ft | 9 kts | 82° |
| 2026-05-07 19:12 | 52.44816 | 20.65537 | 337 ft | 12 kts | 81° |
| 2026-05-07 19:13 | 52.44830 | 20.65688 | 337 ft | 14 kts | 82° |
| 2026-05-07 19:13 | 52.44844 | 20.65846 | 340 ft | 14 kts | 83° |
| 2026-05-07 19:13 | 52.44859 | 20.66022 | 339 ft | 16 kts | 81° |
| 2026-05-07 19:13 | 52.44879 | 20.66219 | 339 ft | 18 kts | 81° |
| 2026-05-07 19:14 | 52.44899 | 20.66434 | 339 ft | 20 kts | 81° |
| 2026-05-07 19:14 | 52.44914 | 20.66607 | 338 ft | 11 kts | 82° |
| 2026-05-07 19:14 | 52.44928 | 20.66756 | 338 ft | 14 kts | 79° |
| 2026-05-07 19:14 | 52.44944 | 20.66926 | 338 ft | 11 kts | 81° |
| 2026-05-07 19:15 | 52.44971 | 20.67050 | 337 ft | 12 kts | 43° |
| 2026-05-07 19:15 | 52.45065 | 20.67067 | 335 ft | 15 kts | 351° |
| 2026-05-07 19:15 | 52.45171 | 20.67035 | 333 ft | 2 kts | 343° |
| 2026-05-07 19:15 | 52.45178 | 20.67032 | 333 ft | 0 kts | 343° |
| 2026-05-07 19:16 | 52.45184 | 20.67029 | 333 ft | 2 kts | 343° |
| 2026-05-07 19:16 | 52.45217 | 20.67013 | 333 ft | 7 kts | 343° |
| 2026-05-07 19:16 | 52.45272 | 20.66949 | 333 ft | 12 kts | 292° |
| 2026-05-07 19:16 | 52.45267 | 20.66782 | 333 ft | 18 kts | 262° |
| 2026-05-07 19:17 | 52.45208 | 20.66172 | 334 ft | 94 kts | 262° |
| 2026-05-07 19:17 | 52.45071 | 20.64705 | 335 ft | 165 kts | 262° |
| 2026-05-07 19:17 | 52.44899 | 20.62715 | 884 ft | 181 kts | 263° |
| 2026-05-07 19:17 | 52.44730 | 20.60770 | 1857 ft | 168 kts | 259° |
| 2026-05-07 19:18 | 52.44209 | 20.59153 | 2370 ft | 167 kts | 220° |
| 2026-05-07 19:18 | 52.43229 | 20.58032 | 2662 ft | 181 kts | 218° |
| 2026-05-07 19:18 | 52.42476 | 20.56307 | 2951 ft | 195 kts | 252° |
| 2026-05-07 19:18 | 52.42065 | 20.54117 | 3302 ft | 209 kts | 245° |
| 2026-05-07 19:19 | 52.41088 | 20.52281 | 3600 ft | 225 kts | 211° |
| 2026-05-07 19:19 | 52.39579 | 20.51444 | 3953 ft | 242 kts | 191° |
| 2026-05-07 19:19 | 52.37840 | 20.51036 | 4362 ft | 260 kts | 187° |
| 2026-05-07 19:19 | 52.36018 | 20.50716 | 5002 ft | 267 kts | 186° |
| 2026-05-07 19:20 | 52.34193 | 20.50416 | 5771 ft | 269 kts | 186° |
| 2026-05-07 19:20 | 52.32344 | 20.50115 | 6520 ft | 272 kts | 186° |
| 2026-05-07 19:20 | 52.30456 | 20.49809 | 7265 ft | 275 kts | 186° |
| 2026-05-07 19:20 | 52.28559 | 20.49501 | 8002 ft | 278 kts | 186° |
| 2026-05-07 19:21 | 52.26635 | 20.49190 | 8732 ft | 280 kts | 186° |
| 2026-05-07 19:21 | 52.24698 | 20.48876 | 9432 ft | 283 kts | 186° |
| 2026-05-07 19:21 | 52.22727 | 20.48558 | 10113 ft | 286 kts | 186° |
| 2026-05-07 19:21 | 52.20742 | 20.48237 | 10588 ft | 296 kts | 186° |
| 2026-05-07 19:22 | 52.18637 | 20.47897 | 10877 ft | 313 kts | 186° |
| 2026-05-07 19:22 | 52.16426 | 20.47540 | 11166 ft | 329 kts | 186° |
| 2026-05-07 19:22 | 52.14100 | 20.47165 | 11446 ft | 345 kts | 186° |
| 2026-05-07 19:22 | 52.11685 | 20.46776 | 11716 ft | 360 kts | 186° |
| 2026-05-07 19:23 | 52.09141 | 20.46367 | 11978 ft | 375 kts | 186° |
| 2026-05-07 19:23 | 52.06489 | 20.45939 | 12234 ft | 389 kts | 186° |
| 2026-05-07 19:23 | 52.03783 | 20.45325 | 12567 ft | 400 kts | 195° |
| 2026-05-07 19:23 | 52.01307 | 20.43329 | 13096 ft | 404 kts | 219° |
| 2026-05-07 19:24 | 51.99497 | 20.39893 | 13732 ft | 405 kts | 241° |
| 2026-05-07 19:24 | 51.98481 | 20.35623 | 14322 ft | 407 kts | 255° |
| 2026-05-07 19:24 | 51.97761 | 20.31181 | 14877 ft | 411 kts | 255° |
| 2026-05-07 19:24 | 51.97043 | 20.26714 | 15386 ft | 415 kts | 255° |
| 2026-05-07 19:25 | 51.96289 | 20.22183 | 15911 ft | 418 kts | 254° |
| 2026-05-07 19:25 | 51.95503 | 20.17597 | 16432 ft | 421 kts | 254° |
| 2026-05-07 19:25 | 51.94712 | 20.13085 | 16945 ft | 423 kts | 254° |
| 2026-05-07 19:25 | 51.93898 | 20.08507 | 17440 ft | 426 kts | 253° |
| 2026-05-07 19:26 | 51.93064 | 20.03863 | 17912 ft | 428 kts | 253° |
| 2026-05-07 19:26 | 51.92228 | 19.99239 | 18370 ft | 431 kts | 253° |
| 2026-05-07 19:26 | 51.91384 | 19.94599 | 18818 ft | 434 kts | 253° |
| 2026-05-07 19:26 | 51.90527 | 19.89905 | 19259 ft | 437 kts | 253° |
| 2026-05-07 19:27 | 51.89649 | 19.85119 | 19695 ft | 439 kts | 253° |
| 2026-05-07 19:27 | 51.88950 | 19.81371 | 20028 ft | 441 kts | 253° |
| 2026-05-07 19:27 | 51.88052 | 19.76572 | 20444 ft | 444 kts | 253° |
| 2026-05-07 19:27 | 51.87159 | 19.71798 | 20851 ft | 447 kts | 253° |
| 2026-05-07 19:28 | 51.86266 | 19.67012 | 21244 ft | 449 kts | 253° |
| 2026-05-07 19:28 | 51.85358 | 19.62145 | 21633 ft | 452 kts | 253° |
| 2026-05-07 19:28 | 51.84447 | 19.57264 | 22015 ft | 454 kts | 253° |
| 2026-05-07 19:28 | 51.83533 | 19.52372 | 22390 ft | 457 kts | 253° |
| 2026-05-07 19:29 | 51.82616 | 19.47477 | 22761 ft | 459 kts | 253° |
| 2026-05-07 19:29 | 51.81699 | 19.42591 | 23241 ft | 458 kts | 253° |
| 2026-05-07 19:29 | 51.80773 | 19.37671 | 23780 ft | 456 kts | 253° |
| 2026-05-07 19:29 | 51.79850 | 19.32774 | 24280 ft | 454 kts | 253° |
| 2026-05-07 19:30 | 51.78927 | 19.27879 | 24743 ft | 454 kts | 253° |
| 2026-05-07 19:30 | 51.78017 | 19.23070 | 25186 ft | 453 kts | 253° |
| 2026-05-07 19:30 | 51.77097 | 19.18220 | 25630 ft | 452 kts | 253° |
| 2026-05-07 19:30 | 51.76182 | 19.13410 | 26062 ft | 451 kts | 253° |
| 2026-05-07 19:31 | 51.75256 | 19.08561 | 26486 ft | 450 kts | 253° |
| 2026-05-07 19:31 | 51.74336 | 19.03756 | 26895 ft | 449 kts | 253° |
| 2026-05-07 19:31 | 51.73412 | 18.98944 | 27295 ft | 448 kts | 253° |
| 2026-05-07 19:31 | 51.72489 | 18.94152 | 27684 ft | 447 kts | 253° |
| 2026-05-07 19:32 | 51.71579 | 18.89433 | 28058 ft | 447 kts | 253° |
| 2026-05-07 19:32 | 51.70656 | 18.84667 | 28426 ft | 446 kts | 253° |
| 2026-05-07 19:32 | 51.69725 | 18.79866 | 28786 ft | 445 kts | 253° |
| 2026-05-07 19:32 | 51.68813 | 18.75178 | 29129 ft | 444 kts | 253° |
| 2026-05-07 19:33 | 51.67880 | 18.70389 | 29467 ft | 444 kts | 253° |
| 2026-05-07 19:33 | 51.66961 | 18.65687 | 29794 ft | 443 kts | 253° |
| 2026-05-07 19:33 | 51.66035 | 18.60962 | 30117 ft | 442 kts | 253° |
| 2026-05-07 19:33 | 51.65110 | 18.56255 | 30429 ft | 441 kts | 253° |
| 2026-05-07 19:34 | 51.64189 | 18.51573 | 30729 ft | 441 kts | 253° |
| 2026-05-07 19:34 | 51.63269 | 18.46912 | 31020 ft | 440 kts | 253° |
| 2026-05-07 19:34 | 51.62351 | 18.42268 | 31299 ft | 440 kts | 253° |
| 2026-05-07 19:34 | 51.61418 | 18.37565 | 31582 ft | 439 kts | 253° |